createdAt,value
2023-05-17T00:01:06.609Z,97983.28
2023-05-17T00:03:39.483Z,97980.84
2023-05-17T00:06:13.052Z,97982.28
2023-05-17T00:08:42.372Z,97980.97
2023-05-17T00:11:11.575Z,97985.59
2023-05-17T00:13:42.421Z,97985.59
2023-05-17T00:16:11.764Z,97985.41
2023-05-17T00:18:41.785Z,97989.75
2023-05-17T00:21:10.952Z,97992.94
2023-05-17T00:23:40.553Z,97991.81
2023-05-17T00:26:09.587Z,97991.81
2023-05-17T00:28:38.927Z,97995.03
2023-05-17T00:31:08.263Z,97990.72
2023-05-17T00:33:37.740Z,97996.31
2023-05-17T00:36:07.788Z,97997.94
2023-05-17T00:38:37.172Z,97997.63
2023-05-17T00:41:07.323Z,98002.75
2023-05-17T00:43:36.804Z,98006.44
2023-05-17T00:46:06.012Z,98003.44
2023-05-17T00:48:35.885Z,98009.03
2023-05-17T00:51:05.248Z,98008.72
2023-05-17T00:53:36.123Z,98011.94
2023-05-17T00:56:06.546Z,98010.53
2023-05-17T00:58:37.185Z,98015.50
2023-05-17T01:01:08.054Z,98014.41
2023-05-17T01:03:38.674Z,98018.09
2023-05-17T01:06:08.298Z,98018.59
2023-05-17T01:08:38.329Z,98027.72
2023-05-17T01:11:26.044Z,98026.47
2023-05-17T01:14:05.096Z,98036.09
2023-05-17T01:16:45.749Z,98044.44
2023-05-17T01:19:51.858Z,98052.19
2023-05-17T01:22:48.537Z,98052.53
2023-05-17T01:25:35.637Z,98053.06
2023-05-17T01:28:07.025Z,98060.47
2023-05-17T01:30:38.120Z,98069.75
2023-05-17T01:33:08.608Z,98063.91
2023-05-17T01:35:38.452Z,98074.31
2023-05-17T01:38:07.579Z,98074.66
2023-05-17T01:40:41.438Z,98076.00
2023-05-17T01:43:47.256Z,98078.31
2023-05-17T01:46:25.654Z,98079.19
2023-05-17T01:49:34.469Z,98086.47
2023-05-17T01:52:26.745Z,98082.88
2023-05-17T01:55:10.545Z,98084.34
2023-05-17T01:57:44.788Z,98079.72
2023-05-17T02:00:15.948Z,98082.38
2023-05-17T02:02:46.716Z,98084.44
2023-05-17T02:05:16.472Z,98093.84
2023-05-17T02:07:45.932Z,98078.47
2023-05-17T02:10:15.710Z,98095.91
2023-05-17T02:12:45.486Z,98096.63
2023-05-17T02:15:17.449Z,98087.50
2023-05-17T02:17:46.920Z,98082.22
2023-05-17T02:20:17.101Z,98083.63
2023-05-17T02:22:47.018Z,98089.94
2023-05-17T02:25:16.387Z,98086.13
2023-05-17T02:27:45.561Z,98091.09
2023-05-17T02:30:18.482Z,98085.72
2023-05-17T02:32:51.174Z,98098.69
2023-05-17T02:35:21.349Z,98095.84
2023-05-17T02:37:53.136Z,98102.66
2023-05-17T02:40:22.507Z,98093.88
2023-05-17T02:42:51.624Z,98095.13
2023-05-17T02:45:21.053Z,98096.50
2023-05-17T02:47:50.787Z,98103.94
2023-05-17T02:50:20.105Z,98106.78
2023-05-17T02:52:49.509Z,98103.81
2023-05-17T02:55:18.846Z,98113.63
2023-05-17T02:57:48.170Z,98110.47
2023-05-17T03:00:18.038Z,98112.63
2023-05-17T03:02:47.458Z,98117.84
2023-05-17T03:05:17.192Z,98122.75
2023-05-17T03:07:51.068Z,98126.66
2023-05-17T03:10:20.518Z,98123.81
2023-05-17T03:12:49.806Z,98126.66
2023-05-17T03:15:22.334Z,98131.81
2023-05-17T03:17:51.979Z,98133.63
2023-05-17T03:20:21.809Z,98134.59
2023-05-17T03:22:51.531Z,98133.50
2023-05-17T03:25:21.034Z,98135.53
2023-05-17T03:27:50.328Z,98143.59
2023-05-17T03:30:19.922Z,98144.88
2023-05-17T03:32:51.162Z,98141.16
2023-05-17T03:35:22.330Z,98141.47
2023-05-17T03:37:56.480Z,98139.91
2023-05-17T03:40:27.840Z,98141.06
2023-05-17T03:42:58.874Z,98147.56
2023-05-17T03:45:29.291Z,98155.00
2023-05-17T03:47:59.426Z,98145.63
2023-05-17T03:50:31.038Z,98152.16
2023-05-17T03:53:00.778Z,98153.75
2023-05-17T03:55:30.209Z,98160.50
2023-05-17T03:57:59.345Z,98156.22
2023-05-17T04:00:29.364Z,98161.94
2023-05-17T04:03:04.158Z,98162.44
2023-05-17T04:05:34.483Z,98157.06
2023-05-17T04:08:04.693Z,98160.63
2023-05-17T04:10:35.157Z,98164.47
2023-05-17T04:13:06.362Z,98164.81
2023-05-17T04:15:35.787Z,98159.88
2023-05-17T04:18:07.196Z,98163.28
2023-05-17T04:20:36.516Z,98162.38
2023-05-17T04:23:06.404Z,98158.84
2023-05-17T04:25:37.974Z,98168.75
2023-05-17T04:28:07.299Z,98168.94
2023-05-17T04:30:38.038Z,98177.09
2023-05-17T04:33:07.767Z,98183.22
2023-05-17T04:35:37.344Z,98174.22
2023-05-17T04:38:07.780Z,98174.97
2023-05-17T04:40:38.487Z,98183.63
2023-05-17T04:43:08.242Z,98181.53
2023-05-17T04:45:38.826Z,98186.13
2023-05-17T04:48:09.941Z,98185.63
2023-05-17T04:50:39.430Z,98187.22
2023-05-17T04:53:08.654Z,98183.69
2023-05-17T04:55:39.195Z,98189.34
2023-05-17T04:58:08.658Z,98182.41
2023-05-17T05:00:40.248Z,98187.22
2023-05-17T05:03:11.322Z,98188.88
2023-05-17T05:05:41.689Z,98176.13
2023-05-17T05:08:12.950Z,98186.50
2023-05-17T05:10:42.567Z,98181.34
2023-05-17T05:13:13.560Z,98179.75
2023-05-17T05:15:44.716Z,98173.56
2023-05-17T05:18:14.156Z,98174.63
2023-05-17T05:20:43.511Z,98176.13
2023-05-17T05:23:13.578Z,98163.19
2023-05-17T05:25:45.814Z,98167.19
2023-05-17T05:28:15.849Z,98157.59
2023-05-17T05:30:46.153Z,98162.97
2023-05-17T05:33:17.424Z,98159.38
2023-05-17T05:35:48.923Z,98148.78
2023-05-17T05:38:18.493Z,98152.03
2023-05-17T05:40:51.053Z,98151.53
2023-05-17T05:43:20.526Z,98150.69
2023-05-17T05:45:49.654Z,98153.28
2023-05-17T05:48:20.397Z,98154.44
2023-05-17T05:50:49.976Z,98159.78
2023-05-17T05:53:19.889Z,98155.13
2023-05-17T05:55:56.659Z,98162.13
2023-05-17T05:58:26.796Z,98163.41
2023-05-17T06:00:58.889Z,98158.06
2023-05-17T06:03:28.217Z,98157.47
2023-05-17T06:05:57.575Z,98156.53
2023-05-17T06:08:27.029Z,98163.25
2023-05-17T06:10:57.025Z,98159.81
2023-05-17T06:13:26.520Z,98158.22
2023-05-17T06:15:55.575Z,98161.38
2023-05-17T06:18:25.110Z,98159.19
2023-05-17T06:20:54.929Z,98153.69
2023-05-17T06:23:24.399Z,98163.72
2023-05-17T06:25:53.682Z,98158.03
2023-05-17T06:28:22.761Z,98152.91
2023-05-17T06:30:52.223Z,98155.72
2023-05-17T06:33:22.472Z,98157.66
2023-05-17T06:35:57.049Z,98150.56
2023-05-17T06:38:27.717Z,98145.06
2023-05-17T06:40:59.678Z,98149.56
2023-05-17T06:43:29.760Z,98140.44
2023-05-17T06:45:58.915Z,98133.28
2023-05-17T06:48:28.327Z,98137.41
2023-05-17T06:50:57.888Z,98134.03
2023-05-17T06:53:28.354Z,98132.88
2023-05-17T06:55:58.911Z,98119.53
2023-05-17T06:58:28.697Z,98126.47
2023-05-17T07:00:58.504Z,98119.78
2023-05-17T07:03:29.367Z,98131.78
2023-05-17T07:05:59.083Z,98123.75
2023-05-17T07:08:38.396Z,98117.41
2023-05-17T07:11:07.903Z,98124.25
2023-05-17T07:13:37.141Z,98121.50
2023-05-17T07:16:09.078Z,98125.28
2023-05-17T07:18:38.559Z,98121.31
2023-05-17T07:21:07.938Z,98115.13
2023-05-17T07:23:37.681Z,98113.53
2023-05-17T07:26:06.849Z,98110.22
2023-05-17T07:28:36.611Z,98114.41
2023-05-17T07:31:06.088Z,98119.91
2023-05-17T07:33:35.937Z,98106.22
2023-05-17T07:36:06.618Z,98117.72
2023-05-17T07:38:39.128Z,98121.78
2023-05-17T07:41:14.552Z,98103.09
2023-05-17T07:43:47.185Z,98114.16
2023-05-17T07:46:16.743Z,98112.16
2023-05-17T07:48:45.905Z,98096.66
2023-05-17T07:51:18.381Z,98097.81
2023-05-17T07:53:47.924Z,98104.13
2023-05-17T07:56:17.775Z,98093.06
2023-05-17T07:58:47.378Z,98093.59
2023-05-17T08:01:16.937Z,98092.09
2023-05-17T08:03:49.921Z,98084.16
2023-05-17T08:06:20.012Z,98082.06
2023-05-17T08:08:49.676Z,98081.16
2023-05-17T08:11:19.396Z,98078.78
2023-05-17T08:13:48.682Z,98073.81
2023-05-17T08:16:18.042Z,98074.41
2023-05-17T08:18:47.786Z,98069.47
2023-05-17T08:21:17.416Z,98073.59
2023-05-17T08:23:47.079Z,98056.81
2023-05-17T08:26:16.735Z,98061.56
2023-05-17T08:28:46.322Z,98057.81
2023-05-17T08:31:15.754Z,98051.53
2023-05-17T08:33:45.722Z,98054.28
2023-05-17T08:36:15.922Z,98054.34
2023-05-17T08:38:45.850Z,98046.06
2023-05-17T08:41:15.093Z,98048.44
2023-05-17T08:43:45.781Z,98040.66
2023-05-17T08:46:16.927Z,98039.41
2023-05-17T08:48:51.609Z,98036.63
2023-05-17T08:51:24.203Z,98035.31
2023-05-17T08:53:53.760Z,98032.22
2023-05-17T08:56:25.529Z,98035.13
2023-05-17T08:59:00.179Z,98026.00
2023-05-17T09:01:33.118Z,98024.94
2023-05-17T09:04:03.006Z,98016.56
2023-05-17T09:06:34.279Z,98022.84
2023-05-17T09:09:06.032Z,98002.94
2023-05-17T09:11:35.594Z,98004.81
2023-05-17T09:14:06.753Z,97993.84
2023-05-17T09:16:38.418Z,98001.06
2023-05-17T09:19:11.122Z,97996.28
2023-05-17T09:21:40.611Z,97996.44
2023-05-17T09:24:09.879Z,97988.94
2023-05-17T09:26:47.068Z,97984.94
2023-05-17T09:29:18.508Z,97976.59
2023-05-17T09:31:48.288Z,97972.53
2023-05-17T09:34:21.131Z,97975.91
2023-05-17T09:36:50.695Z,97975.78
2023-05-17T09:39:19.890Z,97966.13
2023-05-17T09:41:51.345Z,97966.78
2023-05-17T09:44:21.078Z,97957.03
2023-05-17T09:46:51.433Z,97962.88
2023-05-17T09:49:20.756Z,97961.66
2023-05-17T09:51:51.794Z,97962.06
2023-05-17T09:54:21.532Z,97950.00
2023-05-17T09:57:00.839Z,97941.91
2023-05-17T09:59:31.555Z,97939.31
2023-05-17T10:02:02.785Z,97926.50
2023-05-17T10:04:33.613Z,97933.22
2023-05-17T10:07:03.266Z,97930.94
2023-05-17T10:09:36.726Z,97920.22
2023-05-17T10:12:07.189Z,97925.78
2023-05-17T10:14:38.941Z,97918.94
2023-05-17T10:17:10.145Z,97903.66
2023-05-17T10:19:40.344Z,97902.75
2023-05-17T10:22:21.741Z,97896.75
2023-05-17T10:24:53.867Z,97892.63
2023-05-17T10:27:23.500Z,97892.97
2023-05-17T10:29:55.871Z,97887.78
2023-05-17T10:32:27.991Z,97875.44
2023-05-17T10:35:10.317Z,97876.16
2023-05-17T10:37:42.520Z,97873.47
2023-05-17T10:40:14.469Z,97870.16
2023-05-17T10:42:52.365Z,97869.16
2023-05-17T10:45:27.472Z,97859.53
2023-05-17T10:47:58.883Z,97866.94
2023-05-17T10:50:30.802Z,97854.97
2023-05-17T10:53:01.572Z,97855.09
2023-05-17T10:55:43.925Z,97845.38
2023-05-17T10:58:18.813Z,97844.22
2023-05-17T11:00:56.170Z,97846.06
2023-05-17T11:03:30.733Z,97838.66
2023-05-17T11:06:21.971Z,97852.13
2023-05-17T11:09:19.662Z,97837.97
2023-05-17T11:12:10.444Z,97840.03
2023-05-17T11:14:48.790Z,97830.50
2023-05-17T11:17:22.813Z,97835.28
2023-05-17T11:20:14.138Z,97829.91
2023-05-17T11:22:52.940Z,97816.75
2023-05-17T11:25:23.309Z,97821.94
2023-05-17T11:27:53.995Z,97819.94
2023-05-17T11:30:31.862Z,97822.25
2023-05-17T11:33:01.610Z,97811.56
2023-05-17T11:35:41.277Z,97814.28
2023-05-17T11:38:25.735Z,97803.97
2023-05-17T11:40:58.929Z,97819.78
2023-05-17T11:43:32.117Z,97823.66
2023-05-17T11:46:02.796Z,97819.63
2023-05-17T11:48:33.722Z,97810.09
2023-05-17T11:51:05.340Z,97815.56
2023-05-17T11:53:35.044Z,97819.91
2023-05-17T11:56:07.619Z,97822.91
2023-05-17T11:58:37.364Z,97822.78
2023-05-17T12:01:07.176Z,97830.22
2023-05-17T12:03:37.458Z,97831.31
2023-05-17T12:06:11.056Z,97839.22
2023-05-17T12:08:44.590Z,97830.03
2023-05-17T12:11:16.496Z,97832.66
2023-05-17T12:13:48.172Z,97835.13
2023-05-17T12:16:22.853Z,97833.75
2023-05-17T12:18:53.794Z,97835.72
2023-05-17T12:21:23.578Z,97834.47
2023-05-17T12:23:53.867Z,97834.47
2023-05-17T12:26:25.149Z,97840.41
2023-05-17T12:29:02.282Z,97838.03
2023-05-17T12:31:35.558Z,97833.16
2023-05-17T12:34:07.787Z,97839.41
2023-05-17T12:36:41.640Z,97834.31
2023-05-17T12:39:15.815Z,97831.53
2023-05-17T12:41:45.623Z,97830.63
2023-05-17T12:44:17.034Z,97822.31
2023-05-17T12:46:49.140Z,97819.97
2023-05-17T12:49:18.847Z,97807.25
2023-05-17T12:51:49.000Z,97815.03
2023-05-17T12:54:29.635Z,97821.19
2023-05-17T12:56:59.079Z,97830.53
2023-05-17T12:59:30.330Z,97828.47
2023-05-17T13:02:01.790Z,97836.63
2023-05-17T13:04:34.103Z,97826.28
2023-05-17T13:07:05.432Z,97829.03
2023-05-17T13:09:37.618Z,97817.44
2023-05-17T13:12:08.655Z,97823.88
2023-05-17T13:14:49.600Z,97830.38
2023-05-17T13:17:36.821Z,97839.19
2023-05-17T13:20:10.708Z,97833.94
2023-05-17T13:22:47.975Z,97844.28
2023-05-17T13:25:18.228Z,97847.72
2023-05-17T13:27:50.371Z,97842.22
2023-05-17T13:30:20.154Z,97847.31
2023-05-17T13:32:49.360Z,97851.75
2023-05-17T13:35:18.656Z,97857.97
2023-05-17T13:37:48.582Z,97851.88
2023-05-17T13:40:18.071Z,97862.69
2023-05-17T13:42:47.612Z,97879.22
2023-05-17T13:45:17.068Z,97889.34
2023-05-17T13:47:53.594Z,97901.59
2023-05-17T13:50:25.378Z,97909.09
2023-05-17T13:52:54.824Z,97904.56
2023-05-17T13:55:24.803Z,97906.66
2023-05-17T13:57:55.135Z,97905.97
2023-05-17T14:00:24.807Z,97912.06
2023-05-17T14:02:54.116Z,97921.59
2023-05-17T14:05:24.126Z,97925.03
2023-05-17T14:07:53.898Z,97922.69
2023-05-17T14:10:23.589Z,97933.94
2023-05-17T14:12:52.687Z,97933.78
2023-05-17T14:15:22.376Z,97936.28
2023-05-17T14:17:52.635Z,97945.47
2023-05-17T14:20:22.818Z,97943.97
2023-05-17T14:22:52.543Z,97946.69
2023-05-17T14:25:21.813Z,97954.56
2023-05-17T14:27:51.598Z,97960.41
2023-05-17T14:30:21.723Z,97971.00
2023-05-17T14:32:52.013Z,97972.16
2023-05-17T14:35:21.317Z,97972.41
2023-05-17T14:37:51.129Z,97983.38
2023-05-17T14:40:20.435Z,97985.31
2023-05-17T14:42:50.276Z,97996.16
2023-05-17T14:45:20.285Z,97996.84
2023-05-17T14:47:49.901Z,97995.63
2023-05-17T14:50:19.168Z,98000.88
2023-05-17T14:52:48.522Z,98007.84
2023-05-17T14:55:19.137Z,98007.53
2023-05-17T14:57:48.375Z,98010.91
2023-05-17T15:00:18.777Z,98016.38
2023-05-17T15:02:48.417Z,98016.84
2023-05-17T15:05:22.362Z,98011.84
2023-05-17T15:07:52.258Z,98019.72
2023-05-17T15:10:22.037Z,98026.00
2023-05-17T15:12:51.406Z,98028.72
2023-05-17T15:15:23.459Z,98025.53
2023-05-17T15:17:52.991Z,98037.28
2023-05-17T15:20:22.809Z,98029.88
2023-05-17T15:22:52.420Z,98021.75
2023-05-17T15:25:22.711Z,98025.28
2023-05-17T15:27:52.515Z,98035.91
2023-05-17T15:30:22.403Z,98032.38
2023-05-17T15:32:52.225Z,98033.16
2023-05-17T15:35:22.464Z,98027.22
2023-05-17T15:37:54.722Z,98031.22
2023-05-17T15:40:25.828Z,98041.72
2023-05-17T15:42:55.488Z,98062.38
2023-05-17T15:45:25.142Z,98139.84
2023-05-17T15:47:54.658Z,98200.16
2023-05-17T15:50:25.074Z,98219.88
2023-05-17T15:52:54.398Z,98236.50
2023-05-17T15:55:23.586Z,98226.06
2023-05-17T15:57:53.139Z,98231.44
2023-05-17T16:00:22.940Z,98256.16
2023-05-17T16:02:53.136Z,98247.06
2023-05-17T16:05:23.222Z,98224.09
2023-05-17T16:07:53.410Z,98220.59
2023-05-17T16:10:24.254Z,98243.38
2023-05-17T16:12:53.438Z,98247.06
2023-05-17T16:15:23.049Z,98234.56
2023-05-17T16:17:52.555Z,98254.75
2023-05-17T16:20:24.711Z,98264.69
2023-05-17T16:22:55.319Z,98265.63
2023-05-17T16:25:26.253Z,98258.88
2023-05-17T16:28:01.011Z,98258.22
2023-05-17T16:30:30.258Z,98255.84
2023-05-17T16:33:00.004Z,98248.78
2023-05-17T16:35:29.872Z,98242.47
2023-05-17T16:37:59.726Z,98245.91
2023-05-17T16:40:30.010Z,98241.53
2023-05-17T16:43:00.391Z,98251.09
2023-05-17T16:45:31.664Z,98244.38
2023-05-17T16:48:01.078Z,98232.00
2023-05-17T16:50:31.316Z,98211.34
2023-05-17T16:53:01.553Z,98214.19
2023-05-17T16:55:31.004Z,98206.59
2023-05-17T16:58:00.335Z,98194.88
2023-05-17T17:00:31.306Z,98193.09
2023-05-17T17:03:01.302Z,98208.59
2023-05-17T17:05:30.989Z,98218.50
2023-05-17T17:08:00.151Z,98221.22
2023-05-17T17:10:29.923Z,98229.53
2023-05-17T17:12:59.690Z,98257.03
2023-05-17T17:15:29.217Z,98288.06
2023-05-17T17:17:58.685Z,98309.50
2023-05-17T17:20:28.021Z,98319.47
2023-05-17T17:22:58.031Z,98300.31
2023-05-17T17:25:27.249Z,98318.38
2023-05-17T17:27:56.952Z,98351.78
2023-05-17T17:30:26.393Z,98362.03
2023-05-17T17:32:56.137Z,98353.81
2023-05-17T17:35:25.685Z,98373.16
2023-05-17T17:37:54.922Z,98415.88
2023-05-17T17:40:24.839Z,98435.22
2023-05-17T17:42:54.567Z,98469.19
2023-05-17T17:45:24.155Z,98479.06
2023-05-17T17:47:54.215Z,98469.72
2023-05-17T17:50:23.889Z,98432.50
2023-05-17T17:52:53.076Z,98420.38
2023-05-17T17:55:22.429Z,98436.41
2023-05-17T17:57:52.980Z,98423.00
2023-05-17T18:00:22.621Z,98445.38
2023-05-17T18:02:52.488Z,98449.28
2023-05-17T18:05:22.765Z,98422.78
2023-05-17T18:07:52.075Z,98390.03
2023-05-17T18:10:22.082Z,98354.44
2023-05-17T18:12:51.798Z,98332.06
2023-05-17T18:15:21.548Z,98316.22
2023-05-17T18:17:52.876Z,98327.91
2023-05-17T18:20:27.546Z,98321.50
2023-05-17T18:22:57.073Z,98324.03
2023-05-17T18:25:26.447Z,98325.84
2023-05-17T18:27:56.040Z,98330.59
2023-05-17T18:30:26.125Z,98312.00
2023-05-17T18:32:55.959Z,98309.78
2023-05-17T18:35:25.454Z,98308.97
2023-05-17T18:37:54.898Z,98305.59
2023-05-17T18:40:24.323Z,98278.31
2023-05-17T18:42:54.137Z,98296.16
2023-05-17T18:45:23.876Z,98284.19
2023-05-17T18:47:53.971Z,98266.97
2023-05-17T18:50:23.224Z,98257.41
2023-05-17T18:52:52.736Z,98242.28
2023-05-17T18:55:22.081Z,98226.84
2023-05-17T18:57:51.426Z,98217.78
2023-05-17T19:00:22.335Z,98212.41
2023-05-17T19:02:52.616Z,98199.69
2023-05-17T19:05:22.341Z,98201.63
2023-05-17T19:07:51.803Z,98229.66
2023-05-17T19:10:22.646Z,98242.00
2023-05-17T19:12:52.236Z,98286.88
2023-05-17T19:15:22.311Z,98352.50
2023-05-17T19:17:52.379Z,98443.91
2023-05-17T19:20:21.954Z,98452.34
2023-05-17T19:22:51.683Z,98478.91
2023-05-17T19:25:21.280Z,98480.47
2023-05-17T19:27:51.050Z,98500.31
2023-05-17T19:30:20.722Z,98513.03
2023-05-17T19:32:51.193Z,98525.56
2023-05-17T19:35:20.818Z,98541.50
2023-05-17T19:37:50.083Z,98553.84
2023-05-17T19:40:23.423Z,98565.25
2023-05-17T19:42:52.739Z,98570.66
2023-05-17T19:45:22.006Z,98589.91
2023-05-17T19:47:51.678Z,98593.38
2023-05-17T19:50:21.500Z,98602.25
2023-05-17T19:52:51.076Z,98606.63
2023-05-17T19:55:23.215Z,98598.31
2023-05-17T19:57:53.582Z,98619.63
2023-05-17T20:00:23.345Z,98635.22
2023-05-17T20:02:52.956Z,98635.84
2023-05-17T20:05:22.830Z,98646.41
2023-05-17T20:07:52.516Z,98638.38
2023-05-17T20:10:22.119Z,98661.19
2023-05-17T20:12:51.480Z,98657.19
2023-05-17T20:15:20.643Z,98664.00
2023-05-17T20:17:49.943Z,98682.16
2023-05-17T20:20:19.611Z,98686.03
2023-05-17T20:22:49.277Z,98683.63
2023-05-17T20:25:18.747Z,98688.75
2023-05-17T20:27:48.491Z,98689.63
2023-05-17T20:30:17.813Z,98683.44
2023-05-17T20:32:46.949Z,98685.09
2023-05-17T20:35:16.398Z,98680.22
2023-05-17T20:37:45.514Z,98687.56
2023-05-17T20:40:14.868Z,98683.50
2023-05-17T20:42:44.495Z,98677.81
2023-05-17T20:45:14.717Z,98675.91
2023-05-17T20:47:44.206Z,98674.28
2023-05-17T20:50:15.424Z,98658.94
2023-05-17T20:52:44.690Z,98651.34
2023-05-17T20:55:13.878Z,98632.72
2023-05-17T20:57:43.276Z,98608.13
2023-05-17T21:00:13.260Z,98592.75
2023-05-17T21:02:43.601Z,98584.91
2023-05-17T21:05:12.854Z,98579.81
2023-05-17T21:07:42.114Z,98564.41
2023-05-17T21:10:11.723Z,98542.03
2023-05-17T21:12:41.520Z,98532.34
2023-05-17T21:15:17.046Z,98499.19
2023-05-17T21:17:47.392Z,98484.09
2023-05-17T21:20:16.888Z,98449.03
2023-05-17T21:22:47.073Z,98429.13
2023-05-17T21:25:16.364Z,98420.78
2023-05-17T21:27:45.421Z,98395.16
2023-05-17T21:30:14.873Z,98364.19
2023-05-17T21:32:43.951Z,98348.28
2023-05-17T21:35:13.712Z,98365.25
2023-05-17T21:37:43.524Z,98367.66
2023-05-17T21:40:12.914Z,98356.63
2023-05-17T21:42:43.347Z,98339.59
2023-05-17T21:45:13.977Z,98329.34
2023-05-17T21:47:43.635Z,98308.84
2023-05-17T21:50:13.212Z,98310.97
2023-05-17T21:52:42.494Z,98328.72
2023-05-17T21:55:11.959Z,98328.63
2023-05-17T21:57:41.417Z,98334.78
2023-05-17T22:00:14.083Z,98345.13
2023-05-17T22:02:46.547Z,98325.91
2023-05-17T22:05:16.240Z,98324.88
2023-05-17T22:07:46.066Z,98325.84
2023-05-17T22:10:15.519Z,98324.75
2023-05-17T22:12:45.117Z,98329.56
2023-05-17T22:15:14.875Z,98335.13
2023-05-17T22:17:51.845Z,98334.34
2023-05-17T22:20:24.538Z,98343.63
2023-05-17T22:22:56.520Z,98335.50
2023-05-17T22:25:26.055Z,98335.19
2023-05-17T22:27:55.298Z,98340.13
2023-05-17T22:30:24.783Z,98338.72
2023-05-17T22:32:55.672Z,98330.38
2023-05-17T22:35:26.068Z,98331.28
2023-05-17T22:37:55.776Z,98327.91
2023-05-17T22:40:24.875Z,98327.72
2023-05-17T22:42:55.431Z,98332.03
2023-05-17T22:45:27.086Z,98320.31
2023-05-17T22:47:58.675Z,98321.19
2023-05-17T22:50:31.581Z,98330.50
2023-05-17T22:53:02.928Z,98334.09
2023-05-17T22:55:32.364Z,98338.25
2023-05-17T22:58:01.871Z,98346.28
2023-05-17T23:00:31.476Z,98350.75
2023-05-17T23:03:01.506Z,98362.66
2023-05-17T23:05:31.152Z,98380.59
2023-05-17T23:08:03.164Z,98411.53
2023-05-17T23:10:32.916Z,98409.72
2023-05-17T23:13:03.423Z,98415.34
2023-05-17T23:15:38.288Z,98415.34
2023-05-17T23:18:13.135Z,98407.22
2023-05-17T23:20:43.217Z,98412.91
2023-05-17T23:23:12.497Z,98428.28
2023-05-17T23:25:41.857Z,98426.69
2023-05-17T23:28:11.546Z,98450.63
2023-05-17T23:30:41.120Z,98457.09
2023-05-17T23:33:10.529Z,98457.72
2023-05-17T23:35:39.669Z,98465.22
2023-05-17T23:38:09.162Z,98480.84
2023-05-17T23:40:41.584Z,98496.28
2023-05-17T23:43:11.358Z,98504.41
2023-05-17T23:45:41.082Z,98517.84
2023-05-17T23:48:11.025Z,98521.94
2023-05-17T23:50:41.105Z,98518.72
2023-05-17T23:53:11.000Z,98514.06
2023-05-17T23:55:40.266Z,98509.81
2023-05-17T23:58:09.450Z,98507.94
